Time;durP1;ratioP1;P1;durP2;ratioP2;P2;SDS_P1;SDS_P2;PMS_P1;PMS_P2;Temp;Humidity;BMP_temperature;BMP_pressure;BME280_temperature;BME280_humidity;BME280_pressure;Samples;Min_cycle;Max_cycle;Signal;HPM_P1;HPM_P2
2024/01/15 00:01:53;;;;;;;111.70;53.30;;;;;;;-2.16;57.76;94384.72;5035474;28;20022;-85
2024/01/15 00:04:19;;;;;;;91.78;47.33;;;;;;;-2.22;57.89;94382.75;5032594;28;20104;-85
2024/01/15 00:06:44;;;;;;;105.97;48.55;;;;;;;-2.20;57.71;94383.13;5033189;28;20037;-87
2024/01/15 00:09:10;;;;;;;107.78;50.20;;;;;;;-2.34;58.18;94367.59;5032431;28;20116;-85
2024/01/15 00:11:35;;;;;;;93.15;47.97;;;;;;;-2.33;58.37;94379.94;5028645;28;20025;-86
2024/01/15 00:14:00;;;;;;;94.85;47.28;;;;;;;-2.38;58.50;94371.41;5029744;28;20101;-87
2024/01/15 00:16:26;;;;;;;90.93;46.72;;;;;;;-2.42;58.66;94374.81;5028392;28;20045;-86
2024/01/15 00:18:51;;;;;;;85.68;43.67;;;;;;;-2.36;58.51;94364.50;5029451;28;20033;-86
2024/01/15 00:21:18;;;;;;;97.88;42.50;;;;;;;-2.36;58.53;94377.94;5028183;28;20041;-85
2024/01/15 00:23:44;;;;;;;76.80;38.85;;;;;;;-2.37;58.62;94379.09;5028894;28;20033;-85
2024/01/15 00:26:10;;;;;;;84.07;40.80;;;;;;;-2.41;58.56;94373.69;5027563;28;20025;-85
2024/01/15 00:28:38;;;;;;;79.07;38.95;;;;;;;-2.44;58.50;94379.81;5027403;28;20103;-85
2024/01/15 00:31:04;;;;;;;63.13;32.72;;;;;;;-2.45;58.28;94380.19;5029063;28;20029;-84
2024/01/15 00:33:30;;;;;;;50.25;29.38;;;;;;;-2.37;57.92;94375.63;5027613;28;20032;-85
2024/01/15 00:35:55;;;;;;;62.38;31.02;;;;;;;-2.37;57.92;94383.72;5029483;28;20025;-85
2024/01/15 00:38:21;;;;;;;62.28;32.00;;;;;;;-2.39;57.50;94376.00;5027877;28;20029;-85
2024/01/15 00:40:46;;;;;;;63.03;31.38;;;;;;;-2.37;57.81;94378.31;5028417;28;20033;-86
2024/01/15 00:43:12;;;;;;;65.13;32.15;;;;;;;-2.34;57.89;94372.22;5028174;28;20063;-85
2024/01/15 00:45:37;;;;;;;71.55;32.30;;;;;;;-2.31;57.58;94374.94;5026981;28;20029;-84
2024/01/15 00:48:03;;;;;;;63.25;31.90;;;;;;;-2.35;57.73;94376.03;5029155;28;20030;-85
2024/01/15 00:50:29;;;;;;;57.50;32.28;;;;;;;-2.35;57.42;94374.16;5026677;28;20029;-85
2024/01/15 00:52:54;;;;;;;61.25;30.02;;;;;;;-2.35;57.52;94376.03;5028313;28;20075;-85
2024/01/15 00:55:19;;;;;;;51.78;28.73;;;;;;;-2.34;57.53;94377.59;5027111;28;20125;-85
2024/01/15 00:57:45;;;;;;;55.88;28.33;;;;;;;-2.34;57.42;94369.53;5027585;28;20039;-86
2024/01/15 01:00:12;;;;;;;52.58;28.10;;;;;;;-2.41;57.42;94368.31;5027637;28;20438;-87
2024/01/15 01:02:37;;;;;;;62.75;27.58;;;;;;;-2.45;57.96;94372.09;5027165;28;20094;-86
2024/01/15 01:05:03;;;;;;;62.50;28.02;;;;;;;-2.43;57.77;94373.28;5028051;28;20487;-86
2024/01/15 01:07:28;;;;;;;51.38;26.88;;;;;;;-2.46;57.79;94365.16;5026209;28;20037;-86
2024/01/15 01:09:55;;;;;;;57.15;27.38;;;;;;;-2.46;57.37;94365.94;5028027;28;20460;-86
2024/01/15 01:12:20;;;;;;;51.88;27.25;;;;;;;-2.43;57.59;94356.34;5026575;28;20025;-86
2024/01/15 01:14:46;;;;;;;49.80;27.70;;;;;;;-2.45;57.30;94367.50;5027957;28;20017;-87
2024/01/15 01:17:12;;;;;;;53.30;27.13;;;;;;;-2.49;57.40;94363.97;5026333;28;20053;-85
2024/01/15 01:19:37;;;;;;;49.85;25.63;;;;;;;-2.54;57.70;94358.13;5025985;28;20025;-88
2024/01/15 01:22:03;;;;;;;48.90;26.23;;;;;;;-2.59;57.47;94361.94;5026741;28;20503;-85
2024/01/15 01:24:28;;;;;;;46.72;25.50;;;;;;;-2.57;57.55;94354.28;5025139;28;20029;-84
2024/01/15 01:26:54;;;;;;;53.25;25.55;;;;;;;-2.54;57.58;94353.53;5026441;28;20025;-85
2024/01/15 01:29:19;;;;;;;51.47;25.05;;;;;;;-2.59;57.54;94351.16;5025717;28;20116;-85
2024/01/15 01:31:45;;;;;;;52.50;27.88;;;;;;;-2.57;57.63;94345.44;5026155;28;20029;-86
2024/01/15 01:34:13;;;;;;;47.13;26.13;;;;;;;-2.64;57.80;94350.72;5025511;28;20037;-85
2024/01/15 01:36:39;;;;;;;43.53;23.75;;;;;;;-2.68;57.88;94348.75;5025498;28;20018;-86
2024/01/15 01:39:05;;;;;;;48.88;26.90;;;;;;;-2.76;57.91;94347.13;5026223;28;20043;-86
2024/01/15 01:41:30;;;;;;;48.72;26.52;;;;;;;-2.78;57.99;94344.03;5024858;28;20496;-84
2024/01/15 01:43:56;;;;;;;50.45;27.20;;;;;;;-2.84;57.77;94329.34;5026531;28;20030;-87
2024/01/15 01:46:22;;;;;;;48.75;27.23;;;;;;;-2.75;57.89;94348.69;5024503;28;20033;-86
2024/01/15 01:48:48;;;;;;;54.03;27.80;;;;;;;-2.75;58.09;94337.16;5024857;28;20021;-86
2024/01/15 01:51:14;;;;;;;58.08;28.52;;;;;;;-2.75;58.17;94331.78;5025346;28;20065;-85
2024/01/15 01:53:39;;;;;;;60.72;30.85;;;;;;;-2.75;58.10;94342.53;5025864;28;20460;-87
2024/01/15 01:56:05;;;;;;;58.30;29.55;;;;;;;-2.74;57.93;94331.41;5024597;28;20028;-88
2024/01/15 01:58:32;;;;;;;48.58;25.52;;;;;;;-2.82;58.39;94323.59;5023533;28;20511;-87
2024/01/15 02:00:58;;;;;;;51.53;25.48;;;;;;;-2.78;58.16;94325.19;5024916;28;20036;-86
2024/01/15 02:03:25;;;;;;;57.08;27.55;;;;;;;-2.81;58.09;94323.25;5025867;28;20029;-87
2024/01/15 02:05:51;;;;;;;57.50;28.65;;;;;;;-2.85;58.42;94325.09;5026202;28;20075;-86
2024/01/15 02:08:17;;;;;;;49.97;26.48;;;;;;;-2.86;58.59;94326.25;5023389;28;20033;-85
2024/01/15 02:10:42;;;;;;;47.28;26.95;;;;;;;-2.84;58.58;94342.03;5025371;28;20038;-86
2024/01/15 02:13:07;;;;;;;70.88;34.88;;;;;;;-2.89;59.00;94328.88;5025491;28;20369;-87
2024/01/15 02:15:33;;;;;;;52.92;26.50;;;;;;;-2.86;59.14;94317.41;5024719;28;20614;-85
2024/01/15 02:18:03;;;;;;;50.42;27.77;;;;;;;-2.95;58.94;94304.22;5025994;28;20063;-86
2024/01/15 02:20:29;;;;;;;52.75;25.73;;;;;;;-3.04;58.79;94301.84;5024152;28;20040;-86
2024/01/15 02:23:10;;;;;;;70.13;36.38;;;;;;;-3.02;59.35;94280.72;5025807;28;20025;-86
2024/01/15 02:25:44;;;;;;;74.05;36.72;;;;;;;-2.95;60.35;94264.66;5024499;28;20046;-87
2024/01/15 02:28:11;;;;;;;65.13;34.95;;;;;;;-2.92;59.57;94267.75;5025089;28;20111;-86
2024/01/15 02:30:40;;;;;;;52.72;27.98;;;;;;;-3.01;59.01;94262.66;5024724;28;20616;-87
2024/01/15 02:33:09;;;;;;;61.30;33.55;;;;;;;-2.98;59.59;94265.41;5024254;28;20433;-86
2024/01/15 02:35:38;;;;;;;94.78;43.10;;;;;;;-2.97;61.32;94256.19;5025546;28;20026;-87
2024/01/15 02:38:04;;;;;;;67.07;35.60;;;;;;;-2.91;60.96;94274.69;5023840;28;20026;-86
2024/01/15 02:40:30;;;;;;;65.55;34.15;;;;;;;-2.94;59.92;94266.19;5025439;28;20053;-87
2024/01/15 02:42:55;;;;;;;64.18;32.30;;;;;;;-2.91;59.86;94274.69;5025482;28;20056;-84
2024/01/15 02:45:21;;;;;;;55.63;30.45;;;;;;;-2.92;59.42;94268.53;5024310;28;20040;-85
2024/01/15 02:47:47;;;;;;;62.65;31.52;;;;;;;-2.89;59.21;94269.72;5025856;28;20022;-85
2024/01/15 02:50:12;;;;;;;58.15;29.70;;;;;;;-2.96;59.03;94275.78;5025457;28;20471;-86
2024/01/15 02:52:38;;;;;;;53.55;30.30;;;;;;;-2.90;58.97;94274.31;5026257;28;20441;-87
2024/01/15 02:55:03;;;;;;;55.45;29.23;;;;;;;-2.93;59.01;94266.97;5024883;28;20037;-86
2024/01/15 02:57:29;;;;;;;57.58;31.20;;;;;;;-2.92;59.02;94265.06;5026310;28;20120;-85
2024/01/15 02:59:54;;;;;;;58.28;30.13;;;;;;;-2.93;59.31;94261.59;5024231;28;20036;-85
2024/01/15 03:02:19;;;;;;;60.35;31.35;;;;;;;-2.94;59.17;94255.44;5025391;28;20029;-85
2024/01/15 03:04:45;;;;;;;66.45;33.60;;;;;;;-2.97;58.90;94266.94;5025200;28;20096;-85
2024/01/15 03:07:10;;;;;;;65.32;34.95;;;;;;;-2.95;59.14;94258.50;5024626;28;20034;-84
2024/01/15 03:09:36;;;;;;;66.57;33.67;;;;;;;-2.93;59.35;94266.97;5024981;28;20882;-85
2024/01/15 03:12:01;;;;;;;66.57;36.25;;;;;;;-2.94;59.32;94265.44;5024707;28;20029;-85
2024/01/15 03:14:27;;;;;;;77.40;37.88;;;;;;;-2.94;59.72;94260.06;5025571;28;20026;-85
2024/01/15 03:16:53;;;;;;;74.00;38.72;;;;;;;-2.89;59.55;94258.97;5023750;28;20494;-84
2024/01/15 03:19:18;;;;;;;72.72;38.25;;;;;;;-2.87;59.61;94253.97;5023600;28;20489;-86
2024/01/15 03:21:43;;;;;;;86.32;39.05;;;;;;;-2.92;60.18;94252.41;5024667;28;20108;-84
2024/01/15 03:24:09;;;;;;;88.38;43.47;;;;;;;-2.93;59.87;94253.53;5026465;28;20034;-86
2024/01/15 03:26:34;;;;;;;84.90;42.83;;;;;;;-2.96;59.95;94243.50;5030689;28;20204;-86
2024/01/15 03:28:59;;;;;;;88.93;44.20;;;;;;;-3.02;60.38;94247.66;5031281;28;20025;-85
2024/01/15 03:31:25;;;;;;;83.80;43.70;;;;;;;-3.02;60.13;94245.75;5034855;28;20063;-85
2024/01/15 03:33:50;;;;;;;107.82;46.15;;;;;;;-2.94;59.83;94249.28;5034332;28;20026;-85
2024/01/15 03:36:15;;;;;;;94.55;46.63;;;;;;;-2.99;59.87;94253.06;5028612;28;20491;-85
2024/01/15 03:38:42;;;;;;;83.93;47.70;;;;;;;-2.94;59.71;94247.38;5025265;28;20137;-84
2024/01/15 03:41:07;;;;;;;104.65;49.45;;;;;;;-2.94;60.03;94246.59;5025495;28;20120;-85
2024/01/15 03:43:33;;;;;;;117.68;53.78;;;;;;;-2.90;60.00;94242.03;5024103;28;20029;-86
2024/01/15 03:45:58;;;;;;;112.95;55.63;;;;;;;-2.88;59.74;94244.34;5024324;28;20473;-85
2024/01/15 03:48:24;;;;;;;116.72;55.90;;;;;;;-2.84;59.63;94240.56;5024532;28;20029;-86
2024/01/15 03:50:49;;;;;;;116.25;54.55;;;;;;;-2.83;59.63;94234.03;5024080;28;20026;-86
2024/01/15 03:53:14;;;;;;;113.63;55.50;;;;;;;-2.80;59.89;94237.94;5025254;28;20025;-86
2024/01/15 03:55:40;;;;;;;113.28;52.72;;;;;;;-2.82;60.30;94246.34;5023179;28;20034;-87
2024/01/15 03:58:05;;;;;;;109.22;51.70;;;;;;;-2.78;59.86;94232.94;5028237;28;20022;-85
2024/01/15 04:00:31;;;;;;;106.38;54.10;;;;;;;-2.81;60.31;94230.97;5027224;28;20078;-86
2024/01/15 04:02:56;;;;;;;103.07;51.13;;;;;;;-2.73;59.88;94235.31;5027750;28;20090;-85
2024/01/15 04:05:21;;;;;;;109.45;49.13;;;;;;;-2.78;59.92;94233.72;5027483;28;20034;-86
2024/01/15 04:07:47;;;;;;;105.97;53.80;;;;;;;-2.81;59.99;94230.97;5027267;28;20108;-86
2024/01/15 04:10:12;;;;;;;100.70;54.92;;;;;;;-2.87;59.92;94227.06;5027898;28;20072;-86
2024/01/15 04:12:38;;;;;;;109.15;57.10;;;;;;;-2.89;60.03;94232.06;5026567;28;20021;-86
2024/01/15 04:15:03;;;;;;;112.85;54.05;;;;;;;-2.92;59.85;94219.31;5028169;28;20476;-86
2024/01/15 04:17:29;;;;;;;106.28;49.70;;;;;;;-2.89;59.73;94227.44;5026445;28;20037;-86
2024/01/15 04:19:55;;;;;;;101.45;50.95;;;;;;;-2.96;59.56;94222.00;5027998;28;20476;-85
2024/01/15 04:22:20;;;;;;;95.82;48.55;;;;;;;-2.92;59.72;94222.03;5026976;28;20030;-87
2024/01/15 04:24:45;;;;;;;117.95;50.88;;;;;;;-2.92;59.72;94224.72;5027054;28;20478;-86
2024/01/15 04:27:11;;;;;;;95.88;49.38;;;;;;;-2.92;59.76;94216.63;5027155;28;20026;-86
2024/01/15 04:29:39;;;;;;;101.50;51.22;;;;;;;-2.90;59.43;94219.75;5026241;28;20064;-85
2024/01/15 04:32:05;;;;;;;92.78;47.10;;;;;;;-2.91;59.82;94220.91;5027811;28;20057;-85
2024/01/15 04:34:30;;;;;;;99.20;46.47;;;;;;;-2.96;60.20;94213.94;5025662;28;20060;-86
2024/01/15 04:36:56;;;;;;;96.45;51.70;;;;;;;-3.01;60.19;94225.78;5027376;28;20026;-85
2024/01/15 04:39:22;;;;;;;89.70;48.38;;;;;;;-3.00;60.60;94221.19;5026198;28;20041;-85
2024/01/15 04:41:47;;;;;;;95.82;47.63;;;;;;;-2.98;60.41;94213.53;5027528;28;20033;-86
2024/01/15 04:44:13;;;;;;;92.20;49.13;;;;;;;-2.96;60.09;94213.94;5027684;28;20408;-84
2024/01/15 04:46:38;;;;;;;99.13;48.22;;;;;;;-2.95;60.01;94208.19;5026220;28;20021;-86
2024/01/15 04:49:04;;;;;;;85.80;43.65;;;;;;;-3.01;60.13;94206.97;5028085;28;20036;-85
2024/01/15 04:51:29;;;;;;;79.00;42.03;;;;;;;-2.99;60.32;94201.22;5025878;28;20047;-86
2024/01/15 04:53:54;;;;;;;83.88;43.17;;;;;;;-2.99;60.39;94201.97;5027565;28;20064;-87
2024/01/15 04:56:20;;;;;;;79.38;42.90;;;;;;;-3.00;60.44;94199.66;5026409;28;20030;-86
2024/01/15 04:58:45;;;;;;;76.80;42.28;;;;;;;-2.97;60.36;94198.94;5026960;28;20507;-86
2024/01/15 05:01:11;;;;;;;88.20;44.00;;;;;;;-2.97;60.45;94199.72;5026690;28;20480;-83
2024/01/15 05:03:36;;;;;;;79.68;43.53;;;;;;;-3.00;60.69;94189.69;5026496;28;20041;-86
2024/01/15 05:06:02;;;;;;;88.93;46.30;;;;;;;-2.94;60.73;94192.81;5026704;28;20056;-87
2024/01/15 05:08:27;;;;;;;98.47;49.05;;;;;;;-2.98;60.79;94186.63;5023866;28;20404;-84
2024/01/15 05:10:53;;;;;;;118.65;53.60;;;;;;;-3.01;60.64;94188.13;5028131;28;20472;-87
2024/01/15 05:13:18;;;;;;;106.28;56.95;;;;;;;-2.96;60.70;94195.09;5025644;28;20108;-86
2024/01/15 05:15:44;;;;;;;122.10;59.90;;;;;;;-2.96;60.32;94195.09;5026192;28;20036;-88
2024/01/15 05:18:09;;;;;;;114.15;56.67;;;;;;;-3.02;60.66;94188.50;5026882;28;20083;-85
2024/01/15 05:20:34;;;;;;;102.13;52.00;;;;;;;-3.10;60.58;94186.88;5026069;28;20105;-87
2024/01/15 05:23:00;;;;;;;106.53;54.08;;;;;;;-3.13;60.98;94193.00;5026399;28;20026;-86
2024/01/15 05:25:25;;;;;;;96.20;49.28;;;;;;;-3.10;60.42;94195.72;5025600;28;20029;-86
2024/01/15 05:27:51;;;;;;;93.25;47.40;;;;;;;-3.12;60.47;94189.94;5027526;28;20569;-87
2024/01/15 05:30:16;;;;;;;90.85;45.97;;;;;;;-3.09;60.08;94208.03;5026025;28;20120;-87
2024/01/15 05:32:42;;;;;;;92.10;48.22;;;;;;;-3.02;60.47;94183.91;5026669;28;20026;-87
2024/01/15 05:35:07;;;;;;;94.50;47.05;;;;;;;-3.08;60.67;94181.91;5026505;28;20086;-84
2024/01/15 05:37:32;;;;;;;93.47;44.72;;;;;;;-3.11;60.82;94183.41;5025880;28;20060;-82
2024/01/15 05:39:58;;;;;;;95.60;50.20;;;;;;;-3.13;60.86;94185.69;5025185;28;20068;-81
2024/01/15 05:42:23;;;;;;;99.63;51.25;;;;;;;-3.19;60.86;94178.34;5025464;28;20060;-82
2024/01/15 05:44:49;;;;;;;88.45;44.05;;;;;;;-3.14;61.05;94176.09;5025650;28;20120;-82
2024/01/15 05:47:15;;;;;;;91.50;45.13;;;;;;;-3.10;60.87;94158.06;5024981;28;20028;-81
2024/01/15 05:49:40;;;;;;;91.63;45.50;;;;;;;-3.07;60.84;94153.88;5026195;28;20076;-82
2024/01/15 05:52:06;;;;;;;78.88;42.65;;;;;;;-3.06;60.60;94156.19;5024715;28;20018;-83
2024/01/15 05:54:31;;;;;;;100.50;43.67;;;;;;;-3.03;60.93;94160.84;5025823;28;20017;-81
2024/01/15 05:56:57;;;;;;;90.15;44.22;;;;;;;-3.03;60.82;94168.16;5024904;28;20447;-81
2024/01/15 05:59:23;;;;;;;88.78;46.78;;;;;;;-3.01;60.92;94177.38;5025242;28;20204;-82
2024/01/15 06:01:48;;;;;;;90.15;42.83;;;;;;;-3.03;60.91;94178.91;5025046;28;20030;-82
2024/01/15 06:04:13;;;;;;;74.65;41.15;;;;;;;-3.05;61.37;94173.88;5025063;28;20025;-82
2024/01/15 06:06:39;;;;;;;78.47;38.08;;;;;;;-2.97;61.37;94183.56;5025404;28;20508;-82
2024/01/15 06:09:08;;;;;;;78.97;41.38;;;;;;;-3.00;61.54;94168.16;5023237;28;20040;-82
2024/01/15 06:11:34;;;;;;;86.25;42.35;;;;;;;-2.91;61.20;94178.63;5026410;28;20033;-85
2024/01/15 06:14:03;;;;;;;88.43;43.58;;;;;;;-2.93;61.29;94162.06;5024794;28;20862;-79
2024/01/15 06:16:29;;;;;;;92.15;42.42;;;;;;;-2.89;61.17;94175.56;5025505;28;20068;-86
2024/01/15 06:18:54;;;;;;;88.28;46.70;;;;;;;-2.89;61.25;94157.50;5026343;28;20501;-84
2024/01/15 06:21:19;;;;;;;95.10;46.40;;;;;;;-2.88;61.54;94160.97;5025432;28;20032;-84
2024/01/15 06:23:45;;;;;;;96.80;47.35;;;;;;;-2.86;61.27;94150.63;5024509;28;20529;-84
2024/01/15 06:26:13;;;;;;;94.30;47.25;;;;;;;-2.82;61.64;94154.88;5024322;28;20456;-83
2024/01/15 06:28:38;;;;;;;85.97;42.92;;;;;;;-2.83;61.38;94160.66;5024864;28;20049;-84
2024/01/15 06:31:05;;;;;;;80.10;42.58;;;;;;;-2.79;61.62;94159.53;5023857;28;20033;-84
2024/01/15 06:33:31;;;;;;;89.75;45.08;;;;;;;-2.70;61.31;94172.66;5024912;28;20548;-84
2024/01/15 06:35:56;;;;;;;85.22;46.95;;;;;;;-2.82;61.83;94148.72;5024899;28;20108;-85
2024/01/15 06:38:21;;;;;;;88.85;45.72;;;;;;;-2.57;61.94;94168.59;5025240;28;20017;-85
2024/01/15 06:40:48;;;;;;;87.72;44.88;;;;;;;-2.50;61.40;94170.56;5024803;28;20170;-86
2024/01/15 06:43:14;;;;;;;87.85;49.97;;;;;;;-2.48;61.32;94170.94;5024862;28;20034;-83
2024/01/15 06:45:40;;;;;;;103.07;48.25;;;;;;;-2.41;61.39;94166.41;5025809;28;20087;-84
2024/01/15 06:48:06;;;;;;;88.38;46.97;;;;;;;-2.33;60.95;94163.78;5024401;28;20029;-85
2024/01/15 06:50:31;;;;;;;87.22;45.75;;;;;;;-2.28;60.69;94161.50;5025913;28;20034;-84
2024/01/15 06:52:56;;;;;;;85.70;44.40;;;;;;;-2.21;60.92;94161.56;5024231;28;20108;-84
2024/01/15 06:55:22;;;;;;;81.22;43.08;;;;;;;-2.15;60.69;94170.81;5025005;28;20461;-86
2024/01/15 06:57:47;;;;;;;79.43;40.67;;;;;;;-2.05;60.87;94173.97;5024359;28;20029;-84
2024/01/15 07:00:13;;;;;;;79.00;40.95;;;;;;;-1.99;60.40;94184.03;5024653;28;20391;-85
2024/01/15 07:02:39;;;;;;;80.63;40.42;;;;;;;-1.88;60.01;94190.25;5024361;28;20029;-84
2024/01/15 07:05:07;;;;;;;69.53;36.13;;;;;;;-1.86;59.76;94189.88;5024192;28;20040;-83
2024/01/15 07:07:35;;;;;;;73.03;36.50;;;;;;;-1.80;59.73;94172.19;5025252;28;20030;-84
2024/01/15 07:10:01;;;;;;;68.00;37.45;;;;;;;-1.77;59.61;94170.69;5023871;28;20475;-85
2024/01/15 07:12:26;;;;;;;76.38;38.33;;;;;;;-1.69;59.58;94173.03;5025413;28;20060;-85
2024/01/15 07:14:52;;;;;;;77.55;40.00;;;;;;;-1.63;59.58;94176.16;5024084;28;20040;-85
2024/01/15 07:17:17;;;;;;;72.28;40.08;;;;;;;-1.66;59.42;94177.69;5025105;28;20084;-84
2024/01/15 07:19:42;;;;;;;77.03;39.75;;;;;;;-1.63;59.83;94181.53;5024149;28;20030;-84
2024/01/15 07:22:08;;;;;;;75.78;42.38;;;;;;;-1.59;59.48;94163.47;5024221;28;20100;-83
2024/01/15 07:24:36;;;;;;;89.45;44.90;;;;;;;-1.52;59.48;94179.66;5024961;28;20033;-84
2024/01/15 07:27:02;;;;;;;91.80;45.90;;;;;;;-1.50;59.61;94163.09;5023399;28;20041;-84
2024/01/15 07:29:27;;;;;;;83.32;45.67;;;;;;;-1.46;59.45;94177.38;5023972;28;20064;-84
2024/01/15 07:31:53;;;;;;;82.22;44.45;;;;;;;-1.42;59.45;94176.25;5026671;28;20476;-85
2024/01/15 07:34:18;;;;;;;84.53;46.17;;;;;;;-1.35;59.06;94164.72;5028848;28;20025;-85
2024/01/15 07:36:45;;;;;;;90.38;46.05;;;;;;;-1.39;58.87;94153.91;5027663;28;20518;-84
2024/01/15 07:39:11;;;;;;;91.88;46.55;;;;;;;-1.30;59.00;94163.59;5033536;28;20036;-85
2024/01/15 07:41:36;;;;;;;88.75;46.17;;;;;;;-1.24;58.99;94162.06;5029113;28;20025;-87
2024/01/15 07:44:02;;;;;;;98.53;51.10;;;;;;;-1.15;59.13;94162.47;5027766;28;20024;-84
2024/01/15 07:46:27;;;;;;;98.20;53.83;;;;;;;-1.11;58.82;94168.66;5028841;28;20024;-85
2024/01/15 07:48:56;;;;;;;97.25;50.70;;;;;;;-1.02;58.61;94184.50;5027540;28;20030;-87
2024/01/15 07:51:22;;;;;;;120.50;61.20;;;;;;;-1.03;58.87;94174.84;5029628;28;20502;-86
2024/01/15 07:53:47;;;;;;;145.38;73.20;;;;;;;-0.89;58.61;94180.28;5033233;28;20038;-85
2024/01/15 07:56:13;;;;;;;153.68;75.72;;;;;;;-0.90;58.61;94173.34;5028862;28;20021;-85
2024/01/15 07:58:38;;;;;;;155.88;76.32;;;;;;;-0.90;58.67;94141.75;5028581;28;20030;-86
2024/01/15 08:01:04;;;;;;;149.80;80.25;;;;;;;-0.80;58.34;94151.03;5028302;28;20033;-85
2024/01/15 08:03:29;;;;;;;148.80;75.03;;;;;;;-0.73;58.07;94153.72;5029000;28;20025;-86
2024/01/15 08:05:57;;;;;;;158.10;78.38;;;;;;;-0.72;58.22;94160.66;5027310;28;20193;-85
2024/01/15 08:08:23;;;;;;;146.38;72.20;;;;;;;-0.66;57.94;94171.84;5027752;28;20053;-86
2024/01/15 08:10:49;;;;;;;140.85;71.13;;;;;;;-0.60;57.78;94178.41;5026933;28;20068;-86
2024/01/15 08:13:14;;;;;;;140.63;72.68;;;;;;;-0.51;57.64;94176.13;5028556;28;20400;-86
2024/01/15 08:15:41;;;;;;;141.80;72.25;;;;;;;-0.43;57.80;94168.81;5027044;28;20033;-85
2024/01/15 08:18:06;;;;;;;130.88;69.05;;;;;;;-0.37;57.41;94168.03;5027396;28;20037;-85
2024/01/15 08:20:32;;;;;;;137.77;69.50;;;;;;;-0.31;57.07;94173.81;5027845;28;20029;-85
2024/01/15 08:22:58;;;;;;;131.70;67.05;;;;;;;-0.22;56.59;94190.44;5027926;28;20029;-84
2024/01/15 08:25:23;;;;;;;124.25;66.80;;;;;;;-0.17;56.60;94179.25;5028309;28;20061;-84
2024/01/15 08:27:49;;;;;;;139.63;72.00;;;;;;;-0.13;56.59;94171.88;5026073;28;20025;-85
2024/01/15 08:30:14;;;;;;;131.20;71.05;;;;;;;-0.01;56.51;94165.31;5027764;28;20079;-85
2024/01/15 08:32:42;;;;;;;135.80;71.20;;;;;;;0.12;56.35;94168.41;5027246;28;20488;-85
2024/01/15 08:35:09;;;;;;;138.95;69.00;;;;;;;0.26;55.67;94157.56;5027224;28;20060;-85
2024/01/15 08:37:34;;;;;;;136.85;71.38;;;;;;;0.53;55.08;94152.47;5027137;28;20114;-86
2024/01/15 08:40:00;;;;;;;146.07;74.75;;;;;;;0.69;54.81;94158.22;5027206;28;20466;-85
2024/01/15 08:42:25;;;;;;;141.10;75.85;;;;;;;0.71;54.76;94147.00;5026747;28;20037;-89
2024/01/15 08:44:50;;;;;;;134.10;73.18;;;;;;;0.78;54.44;94146.97;5025507;28;20109;-86
2024/01/15 08:47:16;;;;;;;134.68;67.07;;;;;;;0.85;54.39;94151.56;5028913;28;20033;-89
2024/01/15 08:49:44;;;;;;;122.00;66.75;;;;;;;0.89;55.34;94147.69;5030642;28;20056;-92
2024/01/15 08:52:09;;;;;;;126.90;70.10;;;;;;;1.00;54.83;94144.94;5029044;28;20053;-88
2024/01/15 08:54:35;;;;;;;133.63;72.00;;;;;;;1.08;54.24;94124.00;5027256;28;20147;-89
2024/01/15 08:57:00;;;;;;;125.20;68.70;;;;;;;1.25;53.40;94123.13;5031299;28;20026;-88
2024/01/15 08:59:26;;;;;;;116.75;65.45;;;;;;;1.38;53.04;94118.81;5025955;28;20029;-87
2024/01/15 09:01:56;;;;;;;128.95;65.13;;;;;;;1.65;52.13;94135.22;5026651;28;20050;-87
2024/01/15 09:04:23;;;;;;;97.50;55.33;;;;;;;2.24;50.77;94120.81;5028009;28;20021;-88
2024/01/15 09:06:48;;;;;;;98.60;54.92;;;;;;;2.47;50.36;94114.75;5027002;28;20041;-85
2024/01/15 09:09:14;;;;;;;105.95;56.15;;;;;;;3.31;48.89;94100.47;5039237;28;20034;-88
2024/01/15 09:11:40;;;;;;;93.60;54.17;;;;;;;3.30;48.22;94086.13;5040802;28;20387;-82
2024/01/15 09:14:06;;;;;;;90.25;52.00;;;;;;;3.52;48.11;94096.69;5031921;28;20030;-79
2024/01/15 09:16:31;;;;;;;85.53;53.80;;;;;;;4.10;46.19;94059.97;5029006;28;20067;-78
2024/01/15 09:18:57;;;;;;;94.43;55.50;;;;;;;5.12;44.56;94087.56;5033951;28;20026;-80
2024/01/15 09:21:24;;;;;;;100.35;58.25;;;;;;;6.50;42.11;94071.78;5042481;28;20029;-79
2024/01/15 09:23:50;;;;;;;95.45;57.30;;;;;;;7.96;39.12;94072.91;5043849;28;20156;-80
2024/01/15 09:26:15;;;;;;;92.13;57.05;;;;;;;8.40;37.91;94062.88;5038398;28;20030;-79
2024/01/15 09:28:40;;;;;;;90.68;55.00;;;;;;;9.88;35.08;94059.75;5027786;28;20036;-86
2024/01/15 09:31:06;;;;;;;89.57;54.75;;;;;;;11.30;32.31;94057.66;5026100;28;20029;-78
2024/01/15 09:33:31;;;;;;;86.18;56.53;;;;;;;12.56;30.57;94039.44;5026206;28;20017;-79
2024/01/15 09:35:57;;;;;;;108.30;69.00;;;;;;;13.21;29.09;94052.25;5025656;28;20025;-78
2024/01/15 09:38:23;;;;;;;124.68;74.55;;;;;;;13.94;28.42;94056.19;5025988;28;20029;-79
2024/01/15 09:40:49;;;;;;;125.95;81.15;;;;;;;14.24;27.69;94056.09;5023667;28;20026;-79
2024/01/15 09:43:15;;;;;;;129.23;84.90;;;;;;;14.96;26.60;94042.41;5025162;28;20117;-78
2024/01/15 09:45:42;;;;;;;123.20;80.65;;;;;;;16.04;25.17;94031.78;5024589;28;20025;-79
2024/01/15 09:48:07;;;;;;;119.82;78.55;;;;;;;16.75;24.61;94023.63;5008249;28;20116;-77
2024/01/15 09:50:33;;;;;;;103.50;67.95;;;;;;;17.53;23.37;93998.75;5025281;28;20112;-78
2024/01/15 09:52:59;;;;;;;101.32;65.97;;;;;;;17.95;22.94;94016.47;5024026;28;20029;-79
2024/01/15 09:55:25;;;;;;;96.60;62.10;;;;;;;18.57;21.78;93988.47;5024186;28;20096;-81
2024/01/15 09:57:50;;;;;;;92.82;65.15;;;;;;;19.19;21.11;94021.63;5025173;28;20129;-81
2024/01/15 10:00:18;;;;;;;95.00;64.03;;;;;;;19.41;20.46;93981.75;5025713;28;20025;-81
2024/01/15 10:02:44;;;;;;;93.78;64.05;;;;;;;19.18;21.18;94003.41;5023104;28;20040;-81
2024/01/15 10:05:09;;;;;;;90.10;63.15;;;;;;;18.68;21.18;94002.38;5026440;28;20017;-81
2024/01/15 10:07:36;;;;;;;88.72;59.08;;;;;;;19.37;20.81;93993.91;5025209;28;20033;-82
2024/01/15 10:10:03;;;;;;;73.28;53.47;;;;;;;19.73;20.36;93982.03;5023826;28;20021;-83
2024/01/15 10:12:29;;;;;;;69.10;49.42;;;;;;;20.54;19.24;93968.31;5023628;28;20116;-82
2024/01/15 10:14:56;;;;;;;67.63;48.50;;;;;;;20.53;19.39;93964.75;5023632;28;20105;-84
2024/01/15 10:17:21;;;;;;;62.60;44.83;;;;;;;21.42;18.50;93978.84;5025929;28;20073;-84
2024/01/15 10:19:47;;;;;;;56.33;43.22;;;;;;;21.92;17.91;93972.44;5023323;28;20080;-84
2024/01/15 10:22:14;;;;;;;53.33;40.80;;;;;;;21.13;18.33;93958.91;5026050;28;20029;-84
2024/01/15 10:24:41;;;;;;;55.40;39.88;;;;;;;20.52;18.84;93946.47;5024656;28;20044;-79
2024/01/15 10:27:10;;;;;;;49.83;38.25;;;;;;;19.65;19.68;93959.53;5024277;28;20040;-87
2024/01/15 10:29:36;;;;;;;57.70;41.03;;;;;;;18.42;20.75;93941.50;5025043;28;20507;-90
2024/01/15 10:32:02;;;;;;;51.05;37.35;;;;;;;19.04;20.69;93949.56;5023999;28;20037;-80
2024/01/15 10:34:28;;;;;;;51.42;36.95;;;;;;;19.71;19.96;93954.66;5025287;28;20087;-82
2024/01/15 10:36:57;;;;;;;45.95;34.55;;;;;;;19.16;19.89;93937.09;5023443;28;20021;-83
2024/01/15 10:39:23;;;;;;;45.90;32.25;;;;;;;19.35;19.79;93928.84;5024234;28;20507;-81
2024/01/15 10:41:51;;;;;;;44.03;32.80;;;;;;;19.73;19.61;93937.44;5024099;28;20045;-79
2024/01/15 10:44:18;;;;;;;46.80;31.88;;;;;;;20.10;19.21;93926.38;5025257;28;20029;-79
2024/01/15 10:46:45;;;;;;;37.75;27.13;;;;;;;19.62;19.28;93927.13;5024288;28;20105;-78
2024/01/15 10:49:11;;;;;;;40.80;27.10;;;;;;;19.22;20.01;93928.69;5023170;28;20438;-79
2024/01/15 10:51:36;;;;;;;37.15;26.20;;;;;;;19.22;20.13;93917.53;5025307;28;20068;-81
2024/01/15 10:54:03;;;;;;;35.58;25.30;;;;;;;19.47;19.83;93899.59;5024734;28;20557;-84
2024/01/15 10:56:30;;;;;;;36.75;25.48;;;;;;;19.45;20.22;93923.69;5024391;28;20577;-85
2024/01/15 10:58:56;;;;;;;32.05;24.45;;;;;;;18.95;19.94;93913.66;5023182;28;20029;-88
2024/01/15 11:01:22;;;;;;;33.10;23.23;;;;;;;18.52;20.33;93909.34;5034996;28;20033;-96
2024/01/15 11:03:47;;;;;;;33.38;24.40;;;;;;;18.40;20.48;93910.63;5023859;28;20025;-85
2024/01/15 11:06:19;;;;;;;36.20;25.15;;;;;;;18.02;21.24;93893.59;5026673;28;20036;-85
2024/01/15 11:08:46;;;;;;;37.03;24.80;;;;;;;18.16;21.23;93894.56;5027249;28;20025;-79
2024/01/15 11:11:11;;;;;;;33.90;25.17;;;;;;;17.74;21.47;93893.69;5010572;28;20506;-80